Time;durP1;ratioP1;P1;durP2;ratioP2;P2;SDS_P1;SDS_P2;PMS_P1;PMS_P2;Temp;Humidity;BMP_temperature;BMP_pressure;BME280_temperature;BME280_humidity;BME280_pressure;Samples;Min_cycle;Max_cycle;Signal;HPM_P1;HPM_P2
2022/01/01 00:00:06;;;;;;;52.10;14.63;;;12.00;99.90;;;;;;5046186;28;20080;-78
2022/01/01 00:02:33;;;;;;;41.88;13.35;;;12.00;99.90;;;;;;5046248;28;20099;-79
2022/01/01 00:05:09;;;;;;;52.08;13.60;;;12.00;99.90;;;;;;5029729;28;20146;-80
2022/01/01 00:07:39;;;;;;;50.95;13.73;;;12.00;99.90;;;;;;5055699;28;20076;-82
2022/01/01 00:10:09;;;;;;;56.33;13.48;;;12.00;99.90;;;;;;5068450;28;20049;-81
2022/01/01 00:12:36;;;;;;;45.22;12.88;;;12.00;99.90;;;;;;5067232;28;20112;-81
2022/01/01 00:15:04;;;;;;;51.30;14.02;;;11.90;99.90;;;;;;5063473;28;20127;-81
2022/01/01 00:17:30;;;;;;;54.58;14.88;;;12.00;99.90;;;;;;5033139;28;20128;-82
2022/01/01 00:19:57;;;;;;;46.97;13.13;;;12.00;99.90;;;;;;5049133;28;20111;-81
2022/01/01 00:22:24;;;;;;;60.97;14.45;;;12.00;99.90;;;;;;5042048;28;20445;-81
2022/01/01 00:24:51;;;;;;;39.45;13.40;;;11.90;99.90;;;;;;5057509;28;20147;-81
2022/01/01 00:27:17;;;;;;;55.25;13.68;;;12.00;99.90;;;;;;5035588;28;20049;-82
2022/01/01 00:29:44;;;;;;;51.17;13.63;;;12.00;99.90;;;;;;5026003;28;20513;-81
2022/01/01 00:32:12;;;;;;;47.22;13.70;;;12.00;99.90;;;;;;5052399;28;20053;-81
2022/01/01 00:34:39;;;;;;;58.17;14.00;;;12.00;99.90;;;;;;5052762;28;20053;-81
2022/01/01 00:37:06;;;;;;;48.65;13.48;;;12.00;99.90;;;;;;5053266;28;20080;-81
2022/01/01 00:39:32;;;;;;;53.53;13.65;;;12.10;99.90;;;;;;5035269;28;20160;-80
2022/01/01 00:41:59;;;;;;;50.00;13.82;;;12.00;99.90;;;;;;5035381;28;20561;-81
2022/01/01 00:44:29;;;;;;;47.67;14.20;;;12.00;99.90;;;;;;5061206;28;20115;-81
2022/01/01 00:46:57;;;;;;;54.88;13.25;;;12.00;99.90;;;;;;5073075;28;20087;-81
2022/01/01 00:49:24;;;;;;;60.67;14.13;;;12.00;99.90;;;;;;5055050;28;20099;-81
2022/01/01 00:51:51;;;;;;;41.83;13.55;;;12.00;99.90;;;;;;5056838;28;20729;-81
2022/01/01 00:54:18;;;;;;;49.50;13.45;;;12.00;99.90;;;;;;5054415;28;20123;-81
2022/01/01 00:56:45;;;;;;;54.55;15.00;;;12.00;99.90;;;;;;5036434;28;20077;-80
2022/01/01 00:59:12;;;;;;;50.30;14.27;;;12.00;99.90;;;;;;5033749;28;20091;-80
2022/01/01 01:01:39;;;;;;;54.70;14.23;;;12.00;99.90;;;;;;5033503;28;20139;-81
2022/01/01 01:04:06;;;;;;;51.47;14.13;;;12.00;99.90;;;;;;5034325;28;20143;-80
2022/01/01 01:06:32;;;;;;;50.28;14.20;;;12.00;99.90;;;;;;5034305;28;20128;-80
2022/01/01 01:09:00;;;;;;;58.78;14.95;;;12.00;99.90;;;;;;5032817;28;20084;-80
2022/01/01 01:11:28;;;;;;;66.63;14.70;;;12.00;99.90;;;;;;5050738;28;20132;-80
2022/01/01 01:13:58;;;;;;;69.90;13.18;;;12.00;99.90;;;;;;5062869;28;20041;-80
2022/01/01 01:16:27;;;;;;;45.15;12.95;;;12.00;99.90;;;;;;5059628;28;20095;-80
2022/01/01 01:18:54;;;;;;;50.50;13.93;;;12.00;99.90;;;;;;5049971;28;20076;-80
2022/01/01 01:21:23;;;;;;;47.90;13.50;;;12.00;99.90;;;;;;5050346;28;20061;-80
2022/01/01 01:23:50;;;;;;;42.42;11.80;;;12.00;99.90;;;;;;5042966;28;20147;-80
2022/01/01 01:26:17;;;;;;;51.33;12.02;;;11.90;99.90;;;;;;5070292;28;20147;-80
2022/01/01 01:28:49;;;;;;;57.35;12.43;;;12.00;99.90;;;;;;5058552;28;20449;-80
2022/01/01 01:31:17;;;;;;;36.75;10.57;;;11.90;99.90;;;;;;5032181;28;20051;-80
2022/01/01 01:33:44;;;;;;;52.08;13.07;;;11.90;99.90;;;;;;5030464;28;20045;-80
2022/01/01 01:36:12;;;;;;;65.10;13.65;;;11.90;99.90;;;;;;5049545;28;20140;-80
2022/01/01 01:38:39;;;;;;;55.55;13.23;;;11.90;99.90;;;;;;5049309;28;20803;-80
2022/01/01 01:41:07;;;;;;;58.25;13.10;;;11.90;99.90;;;;;;5049856;28;20080;-80
2022/01/01 01:43:34;;;;;;;53.33;12.95;;;11.90;99.90;;;;;;5055177;28;20076;-80
2022/01/01 01:46:04;;;;;;;48.08;12.70;;;11.90;99.90;;;;;;5051960;28;20110;-80
2022/01/01 01:48:37;;;;;;;48.88;12.30;;;11.90;99.90;;;;;;5056563;28;20772;-80
2022/01/01 01:51:04;;;;;;;47.00;13.05;;;11.90;99.90;;;;;;5048807;28;20644;-80
2022/01/01 01:53:32;;;;;;;63.58;14.15;;;11.90;99.90;;;;;;5066061;28;20080;-79
2022/01/01 01:56:00;;;;;;;51.83;14.10;;;11.90;99.90;;;;;;5068714;28;20080;-80
2022/01/01 01:58:29;;;;;;;47.38;12.25;;;12.00;99.90;;;;;;5040928;28;20097;-80
2022/01/01 02:03:43;;;;;;;56.78;12.48;;;12.00;99.90;;;;;;5047348;28;20053;-80
2022/01/01 02:06:10;;;;;;;57.88;13.63;;;12.00;99.90;;;;;;5046815;28;20132;-80
2022/01/01 02:08:36;;;;;;;59.47;12.57;;;12.00;99.90;;;;;;5030074;28;20059;-80
2022/01/01 02:11:03;;;;;;;53.88;12.27;;;11.90;99.90;;;;;;5048568;28;20727;-80
2022/01/01 02:13:40;;;;;;;64.03;13.32;;;12.00;99.90;;;;;;5039913;28;20072;-79
2022/01/01 02:18:50;;;;;;;51.47;11.65;;;12.00;99.90;;;;;;5048361;28;20159;-80
2022/01/01 02:21:17;;;;;;;43.53;12.15;;;12.00;99.90;;;;;;5047799;28;20047;-79
2022/01/01 02:23:46;;;;;;;52.67;12.38;;;12.00;99.90;;;;;;5040812;28;20080;-80
2022/01/01 02:26:15;;;;;;;56.97;12.18;;;12.00;99.90;;;;;;5049849;28;20044;-80
2022/01/01 02:28:47;;;;;;;49.55;11.40;;;12.00;99.90;;;;;;5055093;28;20920;-80
2022/01/01 02:31:15;;;;;;;41.33;11.48;;;12.00;99.90;;;;;;5029345;28;20714;-79
2022/01/01 02:33:43;;;;;;;46.72;11.85;;;12.00;99.90;;;;;;5029123;28;20446;-79
2022/01/01 02:36:10;;;;;;;42.63;11.30;;;12.00;99.90;;;;;;5047477;28;20136;-81
2022/01/01 02:38:37;;;;;;;46.20;11.20;;;12.00;99.90;;;;;;5047319;28;20127;-80
2022/01/01 02:41:04;;;;;;;47.88;11.07;;;12.00;99.90;;;;;;5046073;28;20049;-80
2022/01/01 02:43:32;;;;;;;54.33;10.85;;;12.00;99.90;;;;;;5056234;28;20132;-81
2022/01/01 02:45:58;;;;;;;36.55;9.73;;;12.00;99.90;;;;;;5052290;28;20064;-81
2022/01/01 02:48:26;;;;;;;49.22;9.70;;;12.00;99.90;;;;;;5029545;28;20053;-80
2022/01/01 02:50:53;;;;;;;38.03;10.77;;;12.00;99.90;;;;;;5046070;28;20053;-80
2022/01/01 02:53:19;;;;;;;46.30;9.73;;;11.90;99.90;;;;;;5061907;28;20143;-81
2022/01/01 02:55:46;;;;;;;37.25;9.55;;;12.00;99.90;;;;;;5049113;28;20087;-80
2022/01/01 02:58:13;;;;;;;41.97;8.65;;;12.00;99.90;;;;;;5059020;28;20776;-80
2022/01/01 03:00:41;;;;;;;44.65;9.40;;;12.00;99.90;;;;;;5028994;28;20084;-81
2022/01/01 03:03:07;;;;;;;46.05;8.82;;;11.90;99.90;;;;;;5045700;28;20063;-80
2022/01/01 03:05:36;;;;;;;40.33;9.05;;;12.00;99.90;;;;;;5027776;28;20831;-80
2022/01/01 03:08:03;;;;;;;26.95;7.85;;;12.00;99.90;;;;;;5047989;28;20829;-80
2022/01/01 03:10:29;;;;;;;38.95;8.27;;;11.90;99.90;;;;;;5053689;28;20135;-80
2022/01/01 03:12:56;;;;;;;40.85;8.77;;;12.00;99.90;;;;;;5049732;28;20084;-80
2022/01/01 03:15:22;;;;;;;37.05;8.98;;;11.90;99.90;;;;;;5043838;28;20562;-80
2022/01/01 03:17:49;;;;;;;34.42;8.68;;;11.90;99.90;;;;;;5061616;28;20051;-80
2022/01/01 03:20:16;;;;;;;42.00;9.15;;;11.90;99.90;;;;;;5027630;28;20540;-80
2022/01/01 03:22:43;;;;;;;37.08;7.97;;;11.90;99.90;;;;;;5054691;28;20132;-80
2022/01/01 03:25:09;;;;;;;42.47;8.98;;;11.90;99.90;;;;;;5065813;28;20553;-80
2022/01/01 03:27:36;;;;;;;35.67;7.82;;;11.90;99.90;;;;;;5044986;28;20091;-80
2022/01/01 03:30:03;;;;;;;37.83;8.73;;;11.90;99.90;;;;;;5046108;28;20153;-80
2022/01/01 03:32:30;;;;;;;32.95;7.95;;;11.90;99.90;;;;;;5045329;28;20137;-80
2022/01/01 03:34:57;;;;;;;39.30;9.43;;;11.80;99.90;;;;;;5027145;28;20152;-80
2022/01/01 03:37:24;;;;;;;32.88;8.07;;;11.80;99.90;;;;;;5045131;28;20055;-79
2022/01/01 03:39:50;;;;;;;47.17;9.27;;;11.80;99.90;;;;;;5026881;28;20049;-80
2022/01/01 03:42:17;;;;;;;45.05;8.57;;;11.80;99.90;;;;;;5044855;28;20482;-79
2022/01/01 03:44:44;;;;;;;31.15;7.18;;;11.70;99.90;;;;;;5058827;28;20048;-80
2022/01/01 03:47:10;;;;;;;39.80;7.72;;;11.70;99.90;;;;;;5047802;28;20084;-80
2022/01/01 03:49:38;;;;;;;30.67;8.55;;;11.70;99.90;;;;;;5025173;28;20092;-80
2022/01/01 03:52:06;;;;;;;31.33;7.30;;;11.60;99.90;;;;;;5040156;28;20067;-81
2022/01/01 03:54:34;;;;;;;42.70;7.20;;;11.50;99.90;;;;;;5044508;28;20137;-80
2022/01/01 03:57:01;;;;;;;43.75;8.00;;;11.40;99.90;;;;;;5049138;28;20135;-80
2022/01/01 03:59:28;;;;;;;43.50;8.05;;;11.30;99.90;;;;;;5050382;28;20145;-80
2022/01/01 04:01:55;;;;;;;33.25;7.18;;;11.30;99.90;;;;;;5031492;28;20092;-80
2022/01/01 04:04:25;;;;;;;33.33;7.65;;;11.30;99.90;;;;;;5048781;28;20053;-80
2022/01/01 04:06:53;;;;;;;33.58;6.95;;;11.30;99.90;;;;;;5049211;28;20067;-80
2022/01/01 04:09:20;;;;;;;29.33;7.07;;;11.30;99.90;;;;;;5049066;28;20132;-80
2022/01/01 04:11:47;;;;;;;28.52;7.95;;;11.40;99.90;;;;;;5048970;28;20577;-80
2022/01/01 04:14:16;;;;;;;28.55;6.95;;;11.50;99.90;;;;;;5059327;28;20091;-80
2022/01/01 04:16:44;;;;;;;41.50;7.00;;;11.50;99.90;;;;;;5032931;28;20084;-80
2022/01/01 04:19:12;;;;;;;33.30;6.90;;;11.50;99.90;;;;;;5030423;28;20690;-80
2022/01/01 04:21:39;;;;;;;36.17;6.78;;;11.50;99.90;;;;;;5049577;28;20120;-80
2022/01/01 04:24:05;;;;;;;39.30;7.38;;;11.50;99.90;;;;;;5059612;28;20375;-80
2022/01/01 04:26:33;;;;;;;38.53;8.25;;;11.60;99.90;;;;;;5047782;28;20048;-80
2022/01/01 04:29:00;;;;;;;35.70;7.80;;;11.60;99.90;;;;;;5030804;28;20127;-80
2022/01/01 04:31:27;;;;;;;40.08;7.05;;;11.50;99.90;;;;;;5048296;28;20127;-80
2022/01/01 04:33:53;;;;;;;38.13;6.97;;;11.50;99.90;;;;;;5030117;28;20045;-80
2022/01/01 04:36:21;;;;;;;39.78;6.32;;;11.50;99.90;;;;;;5047480;28;20049;-80
2022/01/01 04:38:48;;;;;;;31.20;7.32;;;11.50;99.90;;;;;;5030872;28;20136;-80
2022/01/01 04:41:16;;;;;;;34.38;7.80;;;11.50;99.90;;;;;;5029893;28;20055;-80
2022/01/01 04:43:46;;;;;;;39.30;6.75;;;11.60;99.90;;;;;;5057955;28;20083;-80
2022/01/01 04:46:13;;;;;;;36.13;5.72;;;11.60;99.90;;;;;;5044130;28;20510;-79
2022/01/01 04:48:40;;;;;;;24.10;6.28;;;11.60;99.90;;;;;;5047415;28;20147;-79
2022/01/01 04:51:09;;;;;;;44.63;6.55;;;11.60;99.90;;;;;;5048270;28;20067;-80
2022/01/01 04:53:36;;;;;;;25.73;5.40;;;11.60;99.90;;;;;;5047676;28;20072;-80
2022/01/01 04:56:06;;;;;;;34.05;4.90;;;11.60;99.90;;;;;;5041492;28;20049;-80
2022/01/01 04:58:34;;;;;;;36.40;7.03;;;11.60;99.90;;;;;;5030626;28;20513;-80
2022/01/01 05:01:02;;;;;;;32.95;5.13;;;11.60;99.90;;;;;;5048236;28;20084;-80
2022/01/01 05:03:29;;;;;;;36.55;5.43;;;11.70;99.90;;;;;;5048964;28;20051;-80
2022/01/01 05:05:55;;;;;;;41.55;6.78;;;11.70;99.90;;;;;;5048524;28;20173;-80
2022/01/01 05:08:22;;;;;;;23.33;5.82;;;11.70;99.90;;;;;;5029878;28;20546;-80
2022/01/01 05:10:49;;;;;;;32.72;6.40;;;11.70;99.90;;;;;;5048848;28;20072;-80
2022/01/01 05:13:17;;;;;;;48.35;7.28;;;11.70;99.90;;;;;;5055230;28;20084;-80
2022/01/01 05:15:43;;;;;;;30.90;6.22;;;11.80;99.90;;;;;;5061223;28;20048;-80
2022/01/01 05:18:10;;;;;;;33.80;6.50;;;11.80;99.90;;;;;;5048247;28;20131;-80
2022/01/01 05:20:37;;;;;;;20.00;4.93;;;11.80;99.90;;;;;;5048377;28;20084;-79
2022/01/01 05:23:04;;;;;;;33.92;6.47;;;11.80;99.90;;;;;;5040946;28;20082;-80
2022/01/01 05:25:30;;;;;;;31.92;5.53;;;11.80;99.90;;;;;;5068533;28;20091;-80
2022/01/01 05:27:57;;;;;;;23.83;5.68;;;11.80;99.90;;;;;;5050627;28;20127;-80
2022/01/01 05:30:24;;;;;;;39.47;6.78;;;11.80;99.90;;;;;;5048559;28;20073;-80
2022/01/01 05:32:51;;;;;;;38.67;5.72;;;11.90;99.90;;;;;;5030656;28;20735;-80
2022/01/01 05:35:17;;;;;;;47.22;6.75;;;11.80;99.90;;;;;;5030900;28;20049;-80
2022/01/01 05:37:44;;;;;;;30.30;6.15;;;11.90;99.90;;;;;;5030411;28;20471;-80
2022/01/01 05:40:15;;;;;;;46.45;6.80;;;11.90;99.90;;;;;;5047951;28;20095;-80
2022/01/01 05:42:42;;;;;;;41.58;7.05;;;11.80;99.90;;;;;;5049287;28;20083;-80
2022/01/01 05:45:09;;;;;;;29.95;6.07;;;11.90;99.90;;;;;;5067697;28;20486;-80
2022/01/01 05:47:36;;;;;;;42.75;7.25;;;11.90;99.90;;;;;;5054107;28;20056;-80
2022/01/01 05:50:04;;;;;;;34.47;7.03;;;11.80;99.90;;;;;;5048678;28;20124;-80
2022/01/01 05:52:30;;;;;;;41.20;7.18;;;11.80;99.90;;;;;;5054949;28;20059;-79
2022/01/01 05:54:57;;;;;;;34.92;6.97;;;11.80;99.90;;;;;;5043032;28;20133;-79
2022/01/01 05:57:24;;;;;;;34.42;7.22;;;11.80;99.90;;;;;;5049027;28;20164;-79
2022/01/01 05:59:51;;;;;;;41.72;7.28;;;11.80;99.90;;;;;;5031071;28;20064;-81
2022/01/01 06:02:17;;;;;;;37.35;6.40;;;11.80;99.90;;;;;;5049279;28;20052;-81
2022/01/01 06:04:44;;;;;;;37.35;6.47;;;11.70;99.90;;;;;;5030110;28;20053;-79
2022/01/01 06:07:11;;;;;;;43.58;7.60;;;11.70;99.90;;;;;;5039496;28;20083;-80
2022/01/01 06:09:40;;;;;;;39.30;7.03;;;11.70;99.90;;;;;;5049818;28;20502;-81
2022/01/01 06:12:07;;;;;;;37.05;7.78;;;11.70;99.90;;;;;;5050553;28;20136;-81
2022/01/01 06:14:34;;;;;;;52.35;8.57;;;11.70;99.90;;;;;;5067790;28;20076;-81
2022/01/01 06:17:01;;;;;;;52.65;8.63;;;11.70;99.90;;;;;;5061264;28;20041;-82
2022/01/01 06:19:27;;;;;;;32.28;7.55;;;11.70;99.90;;;;;;5050716;28;20053;-82
2022/01/01 06:21:54;;;;;;;41.83;9.40;;;11.70;99.90;;;;;;5033535;28;20135;-82
2022/01/01 06:24:25;;;;;;;41.47;8.65;;;11.70;99.90;;;;;;5038849;28;20077;-82
2022/01/01 06:26:52;;;;;;;45.10;8.35;;;11.70;99.90;;;;;;5033240;28;20059;-82
2022/01/01 06:29:19;;;;;;;49.38;9.85;;;11.70;99.90;;;;;;5050977;28;20073;-82
2022/01/01 06:31:46;;;;;;;43.22;9.32;;;11.70;99.90;;;;;;5051037;28;20658;-82
2022/01/01 06:34:13;;;;;;;41.30;9.02;;;11.70;99.90;;;;;;5033350;28;20051;-82
2022/01/01 06:36:39;;;;;;;47.80;9.23;;;11.70;99.90;;;;;;5033808;28;20111;-82
2022/01/01 06:39:06;;;;;;;47.55;9.52;;;11.60;99.90;;;;;;5032954;28;20136;-82
2022/01/01 06:41:33;;;;;;;39.03;8.98;;;11.60;99.90;;;;;;5032707;28;20083;-82
2022/01/01 06:44:05;;;;;;;42.50;9.43;;;11.60;99.90;;;;;;5037209;28;20048;-84
2022/01/01 06:49:21;;;;;;;49.45;10.52;;;11.70;99.90;;;;;;4989628;28;20069;-81
2022/01/01 06:51:47;;;;;;;48.85;10.65;;;11.60;99.90;;;;;;4996959;28;20151;-82
2022/01/01 06:54:14;;;;;;;46.38;10.43;;;11.60;99.90;;;;;;4989215;28;20077;-82
2022/01/01 06:56:41;;;;;;;40.90;10.32;;;11.60;99.90;;;;;;4987931;28;20100;-81
2022/01/01 06:59:11;;;;;;;45.92;10.55;;;11.60;99.90;;;;;;4971272;28;20074;-81
2022/01/01 07:01:38;;;;;;;67.07;21.58;;;11.60;99.90;;;;;;4989510;28;20078;-81
2022/01/01 07:04:05;;;;;;;54.38;12.68;;;11.60;99.90;;;;;;4987712;28;20042;-81
2022/01/01 07:06:33;;;;;;;55.47;11.63;;;11.60;99.90;;;;;;4984022;28;20091;-81
2022/01/01 07:09:01;;;;;;;44.22;10.23;;;11.60;99.90;;;;;;4985481;28;20046;-81
2022/01/01 07:14:51;;;;;;;51.72;13.50;;;11.60;99.90;;;;;;4995573;28;20144;-82
2022/01/01 07:17:18;;;;;;;52.05;10.75;;;11.70;99.90;;;;;;4992720;28;20475;-82
2022/01/01 07:19:45;;;;;;;62.47;12.00;;;11.60;99.90;;;;;;5006314;28;20529;-82
2022/01/01 07:22:12;;;;;;;53.08;12.18;;;11.60;99.90;;;;;;4990452;28;20132;-81
2022/01/01 07:24:39;;;;;;;63.85;11.95;;;11.60;99.90;;;;;;5018948;28;20109;-82
2022/01/01 07:27:06;;;;;;;33.88;10.18;;;11.60;99.90;;;;;;5030950;28;20132;-81
2022/01/01 07:29:33;;;;;;;57.90;11.63;;;11.70;99.90;;;;;;5000515;28;20054;-82
2022/01/01 07:32:00;;;;;;;54.75;11.60;;;11.60;99.90;;;;;;5021017;28;20136;-82
2022/01/01 07:34:28;;;;;;;58.40;12.55;;;11.60;99.90;;;;;;5014927;28;20053;-84
2022/01/01 07:36:56;;;;;;;48.15;11.55;;;11.60;99.90;;;;;;5019268;28;20395;-82
2022/01/01 07:39:24;;;;;;;59.22;12.55;;;11.60;99.90;;;;;;5014401;28;20672;-82
2022/01/01 07:41:51;;;;;;;49.13;12.85;;;11.60;99.90;;;;;;5016142;28;20070;-81
2022/01/01 07:44:19;;;;;;;39.15;12.25;;;11.70;99.90;;;;;;5014073;28;20069;-81
2022/01/01 07:46:49;;;;;;;55.03;12.82;;;11.70;99.90;;;;;;5002077;28;20074;-81
2022/01/01 07:49:17;;;;;;;46.00;12.60;;;11.70;99.90;;;;;;4994857;28;20051;-82
2022/01/01 07:51:44;;;;;;;56.83;13.20;;;11.80;99.90;;;;;;4994343;28;20074;-81
2022/01/01 07:54:11;;;;;;;39.95;12.10;;;11.70;99.90;;;;;;5011340;28;20124;-81
2022/01/01 07:56:37;;;;;;;51.50;13.60;;;11.70;99.90;;;;;;5012364;28;20041;-81
2022/01/01 07:59:04;;;;;;;50.97;13.23;;;11.80;99.90;;;;;;4997664;28;20050;-81
2022/01/01 08:01:31;;;;;;;51.38;14.07;;;11.80;99.90;;;;;;5002419;28;20086;-83
2022/01/01 08:04:02;;;;;;;39.33;12.70;;;11.90;99.90;;;;;;5022992;28;20141;-81
2022/01/01 08:06:30;;;;;;;61.15;13.98;;;11.90;99.90;;;;;;5021672;28;20073;-81
2022/01/01 08:08:57;;;;;;;56.28;13.07;;;11.90;99.90;;;;;;5008217;28;20781;-81
2022/01/01 08:11:24;;;;;;;68.45;14.30;;;11.90;99.90;;;;;;4993161;28;20605;-81
2022/01/01 08:13:52;;;;;;;60.17;14.38;;;12.00;99.90;;;;;;4996694;28;20048;-81
2022/01/01 08:16:20;;;;;;;48.13;13.38;;;12.00;99.90;;;;;;5020778;28;20133;-82
2022/01/01 08:19:01;;;;;;;68.45;14.88;;;12.10;99.90;;;;;;5011883;28;20049;-82
2022/01/01 08:21:27;;;;;;;57.53;12.93;;;12.10;99.90;;;;;;5014105;28;20894;-81
2022/01/01 08:23:55;;;;;;;65.25;14.73;;;12.00;99.90;;;;;;5027107;28;20049;-81
2022/01/01 08:26:22;;;;;;;42.55;14.98;;;12.10;99.90;;;;;;5014304;28;20100;-81
2022/01/01 08:28:49;;;;;;;51.35;13.85;;;12.10;99.90;;;;;;5021581;28;20140;-82
2022/01/01 08:31:15;;;;;;;56.75;13.93;;;12.10;99.90;;;;;;5025776;28;20073;-82
2022/01/01 08:33:43;;;;;;;70.05;13.32;;;12.10;99.90;;;;;;5013549;28;20085;-82
2022/01/01 08:36:11;;;;;;;57.28;13.85;;;12.10;99.90;;;;;;5021433;28;20511;-81
2022/01/01 08:38:38;;;;;;;50.65;13.60;;;12.20;99.90;;;;;;5015833;28;20078;-81
2022/01/01 08:41:05;;;;;;;48.47;13.75;;;12.20;99.90;;;;;;5012897;28;20081;-81
2022/01/01 08:43:31;;;;;;;45.22;13.30;;;12.20;99.90;;;;;;5021314;28;20119;-81
2022/01/01 08:45:58;;;;;;;47.38;13.50;;;12.30;99.90;;;;;;5008442;28;20133;-81
2022/01/01 08:48:26;;;;;;;47.20;13.43;;;12.30;99.90;;;;;;5020437;28;20116;-81
2022/01/01 08:50:53;;;;;;;49.80;13.57;;;12.30;99.90;;;;;;5013203;28;20399;-81
2022/01/01 08:53:21;;;;;;;54.10;12.90;;;12.20;99.90;;;;;;5015603;28;20124;-81
2022/01/01 08:55:48;;;;;;;57.28;16.00;;;12.30;99.90;;;;;;5012668;28;20172;-82
2022/01/01 08:58:15;;;;;;;48.83;13.85;;;12.30;99.90;;;;;;5017645;28;20077;-82
2022/01/01 09:00:52;;;;;;;43.42;12.15;;;12.20;99.90;;;;;;5019942;28;20045;-81
2022/01/01 09:03:20;;;;;;;40.13;14.50;;;12.20;99.90;;;;;;5012346;28;20408;-80
2022/01/01 09:05:47;;;;;;;54.97;14.80;;;12.20;99.90;;;;;;4993770;28;20515;-80
2022/01/01 09:08:33;;;;;;;44.75;13.43;;;12.20;99.90;;;;;;5012661;28;20124;-81
2022/01/01 09:11:00;;;;;;;52.72;13.38;;;12.20;99.90;;;;;;5022971;28;20450;-81
2022/01/01 09:13:26;;;;;;;51.55;13.43;;;12.30;99.90;;;;;;4998849;28;20125;-81
2022/01/01 09:15:53;;;;;;;53.15;14.20;;;12.20;99.90;;;;;;5000124;28;20089;-81
2022/01/01 09:18:20;;;;;;;59.13;15.70;;;12.20;99.90;;;;;;4963991;28;20053;-81
2022/01/01 09:20:48;;;;;;;46.85;14.07;;;12.30;99.90;;;;;;4988901;28;20145;-81
2022/01/01 09:23:16;;;;;;;54.15;15.02;;;12.20;99.90;;;;;;4995663;28;20058;-82
2022/01/01 09:25:43;;;;;;;54.40;14.57;;;12.30;99.90;;;;;;4991775;28;20050;-81
2022/01/01 09:28:10;;;;;;;56.60;15.43;;;12.30;99.90;;;;;;4991483;28;20054;-81
2022/01/01 09:30:37;;;;;;;53.50;14.60;;;12.30;99.90;;;;;;4993098;28;20078;-80
2022/01/01 09:33:05;;;;;;;59.50;15.35;;;12.40;99.90;;;;;;4991126;28;20141;-81
2022/01/01 09:35:32;;;;;;;57.20;16.63;;;12.40;99.90;;;;;;4990399;28;20129;-80
2022/01/01 09:37:59;;;;;;;51.45;14.43;;;12.50;99.90;;;;;;4999437;28;20089;-81
2022/01/01 09:40:26;;;;;;;54.97;16.30;;;12.50;99.90;;;;;;4993470;28;20086;-80
2022/01/01 09:42:54;;;;;;;56.08;16.75;;;12.60;99.90;;;;;;4999670;28;20046;-81
2022/01/01 09:45:21;;;;;;;61.67;17.08;;;12.60;99.90;;;;;;5005858;28;20085;-81
2022/01/01 09:47:48;;;;;;;56.58;15.95;;;12.70;99.90;;;;;;4998716;28;20589;-80
2022/01/01 09:50:15;;;;;;;52.78;17.75;;;12.60;99.90;;;;;;4998038;28;20129;-80
2022/01/01 09:52:42;;;;;;;54.67;16.30;;;12.70;99.90;;;;;;4998137;28;20137;-80
2022/01/01 09:55:09;;;;;;;61.20;16.92;;;12.70;99.90;;;;;;4996046;28;20218;-80
2022/01/01 09:57:37;;;;;;;56.10;16.60;;;12.70;99.90;;;;;;4994217;28;20055;-80
2022/01/01 10:00:05;;;;;;;59.05;17.58;;;12.60;99.90;;;;;;4997768;28;20160;-80
2022/01/01 10:02:32;;;;;;;63.38;17.13;;;12.70;99.90;;;;;;4972741;28;20065;-80
2022/01/01 10:05:04;;;;;;;55.80;17.27;;;12.70;99.90;;;;;;4984997;28;20133;-80
2022/01/01 10:07:31;;;;;;;67.90;17.48;;;12.70;99.90;;;;;;4995856;28;20047;-81
2022/01/01 10:10:16;;;;;;;52.28;16.95;;;12.70;99.90;;;;;;4990122;28;20065;-83
2022/01/01 10:12:50;;;;;;;55.97;18.00;;;12.60;99.90;;;;;;4995365;28;20802;-83
2022/01/01 10:15:17;;;;;;;67.22;19.35;;;12.70;99.90;;;;;;5031093;28;20087;-83
2022/01/01 10:17:46;;;;;;;60.55;17.33;;;12.70;99.90;;;;;;5020429;28;20133;-84
2022/01/01 10:20:13;;;;;;;66.82;18.70;;;12.70;99.90;;;;;;5011315;28;20085;-84
2022/01/01 10:22:48;;;;;;;66.22;18.92;;;12.70;99.90;;;;;;4995467;28;20061;-81
2022/01/01 10:28:04;;;;;;;69.45;18.90;;;12.80;99.90;;;;;;5004865;28;20805;-81
2022/01/01 10:30:43;;;;;;;65.20;18.17;;;12.80;99.90;;;;;;4990915;28;20130;-80
2022/01/01 10:33:17;;;;;;;63.50;19.38;;;12.80;99.90;;;;;;5002123;28;20042;-81
2022/01/01 10:35:46;;;;;;;59.03;17.05;;;12.80;99.90;;;;;;5015549;28;20112;-82
2022/01/01 10:38:22;;;;;;;54.92;17.63;;;12.80;99.90;;;;;;4993538;28;20140;-81
2022/01/01 10:41:04;;;;;;;68.82;18.23;;;12.70;99.90;;;;;;5009919;28;20049;-81
2022/01/01 10:43:39;;;;;;;69.95;18.48;;;12.80;99.90;;;;;;5028193;28;20137;-81
2022/01/01 10:46:16;;;;;;;52.17;18.10;;;12.80;99.90;;;;;;5015173;28;20756;-81
2022/01/01 10:51:19;;;;;;;61.47;20.35;;;12.80;99.90;;;;;;5015461;28;20125;-83
2022/01/01 10:53:59;;;;;;;69.00;18.55;;;12.90;99.90;;;;;;5009941;28;20049;-82
2022/01/01 10:56:25;;;;;;;68.80;19.23;;;12.90;99.90;;;;;;5013495;28;20136;-82
2022/01/01 10:59:01;;;;;;;58.53;18.60;;;12.90;99.90;;;;;;5026666;28;20128;-81
2022/01/01 11:01:29;;;;;;;69.22;21.35;;;13.00;99.90;;;;;;5017174;28;20396;-79
2022/01/01 11:03:56;;;;;;;64.20;19.40;;;13.10;99.90;;;;;;5002672;28;20132;-80
2022/01/01 11:06:23;;;;;;;66.32;18.48;;;13.20;99.90;;;;;;5016913;28;20125;-81
2022/01/01 11:08:50;;;;;;;67.68;20.38;;;13.20;99.90;;;;;;5015335;28;20498;-82
2022/01/01 11:11:17;;;;;;;62.13;17.88;;;13.20;99.90;;;;;;5012419;28;20081;-78
2022/01/01 11:13:45;;;;;;;60.35;17.88;;;13.30;99.90;;;;;;5010437;28;20125;-77
2022/01/01 11:16:14;;;;;;;73.72;20.38;;;13.30;99.90;;;;;;5006182;28;20046;-80
2022/01/01 11:18:44;;;;;;;62.15;17.95;;;13.40;99.90;;;;;;4995119;28;20049;-81
2022/01/01 11:21:11;;;;;;;58.58;19.02;;;13.40;99.90;;;;;;5008127;28;20053;-79
2022/01/01 11:23:40;;;;;;;65.82;18.10;;;13.40;99.90;;;;;;5014369;28;20059;-76
2022/01/01 11:26:08;;;;;;;53.88;17.50;;;13.40;99.90;;;;;;5005149;28;20136;-76
2022/01/01 11:28:36;;;;;;;51.85;17.38;;;13.40;99.90;;;;;;5009811;28;20050;-76
2022/01/01 11:31:08;;;;;;;51.60;17.48;;;13.30;99.90;;;;;;5020421;28;20049;-76
2022/01/01 11:33:43;;;;;;;63.05;15.48;;;13.30;99.90;;;;;;5003639;28;20053;-76
2022/01/01 11:36:21;;;;;;;62.97;18.38;;;13.30;99.90;;;;;;5012917;28;20555;-76
2022/01/01 11:38:48;;;;;;;49.42;18.75;;;13.30;99.90;;;;;;5002102;28;20152;-76
2022/01/01 11:41:17;;;;;;;60.17;19.45;;;13.30;99.90;;;;;;5010475;28;20148;-76
2022/01/01 11:43:53;;;;;;;73.82;18.90;;;13.20;99.90;;;;;;5003529;28;20499;-76
2022/01/01 11:46:29;;;;;;;;;;;13.30;99.90;;;;;;5004555;28;20407;-75
2022/01/01 11:48:56;;;;;;;66.40;18.35;;;13.30;99.90;;;;;;5004409;28;19952;-75
2022/01/01 11:51:38;;;;;;;61.72;18.35;;;13.30;99.90;;;;;;5005859;28;20139;-76
2022/01/01 11:54:05;;;;;;;60.55;18.10;;;13.30;99.90;;;;;;5016473;28;20049;-76
2022/01/01 11:56:49;;;;;;;60.47;18.98;;;13.30;99.90;;;;;;5017914;28;20849;-76
2022/01/01 11:59:18;;;;;;;58.15;17.85;;;13.30;99.90;;;;;;5006739;28;20086;-76
2022/01/01 12:01:45;;;;;;;68.18;18.15;;;13.30;99.90;;;;;;5005323;28;20140;-76
2022/01/01 12:04:38;;;;;;;66.28;19.75;;;13.30;99.90;;;;;;5010590;28;20054;-77
2022/01/01 12:07:18;;;;;;;78.47;21.38;;;13.30;99.90;;;;;;4998227;28;20577;-76
2022/01/01 12:10:04;;;;;;;70.50;20.40;;;13.20;99.90;;;;;;5004381;28;20528;-76
2022/01/01 12:12:40;;;;;;;66.93;20.52;;;13.30;99.90;;;;;;5006691;28;20149;-76
2022/01/01 12:15:23;;;;;;;64.53;21.25;;;13.30;99.90;;;;;;5018139;28;20046;-76
2022/01/01 12:18:07;;;;;;;63.00;20.58;;;13.30;99.90;;;;;;5016628;28;20050;-76
2022/01/01 12:20:38;;;;;;;72.75;22.73;;;13.20;99.90;;;;;;5008499;28;20670;-76
2022/01/01 12:23:12;;;;;;;72.88;21.63;;;13.20;99.90;;;;;;5012379;28;20133;-76
2022/01/01 12:25:41;;;;;;;66.60;21.55;;;13.20;99.90;;;;;;5020414;28;20049;-76
2022/01/01 12:28:23;;;;;;;61.75;20.10;;;13.20;99.90;;;;;;5018000;28;20507;-76
2022/01/01 12:30:55;;;;;;;66.57;20.67;;;13.20;99.90;;;;;;5009105;28;20088;-76
2022/01/01 12:33:48;;;;;;;65.45;20.30;;;13.10;99.90;;;;;;5007833;28;20555;-76
2022/01/01 12:36:17;;;;;;;64.72;21.58;;;13.10;99.90;;;;;;5016520;28;20136;-76
2022/01/01 12:38:55;;;;;;;73.22;22.15;;;13.10;99.90;;;;;;5014928;28;20136;-76
2022/01/01 12:41:29;;;;;;;74.78;22.10;;;13.10;99.90;;;;;;5008720;28;20526;-76
2022/01/01 12:43:58;;;;;;;76.03;21.63;;;13.20;99.90;;;;;;5011390;28;20053;-76
2022/01/01 12:46:34;;;;;;;76.13;24.48;;;13.10;99.90;;;;;;5009904;28;20056;-76
2022/01/01 12:49:05;;;;;;;82.28;21.88;;;13.20;99.90;;;;;;5008501;28;20085;-76
2022/01/01 12:51:37;;;;;;;84.68;23.25;;;13.10;99.90;;;;;;4991077;28;20203;-76
2022/01/01 12:54:05;;;;;;;83.57;23.67;;;13.10;99.90;;;;;;5007959;28;20077;-76